sensor_id;sensor_type;location;lat;lon;timestamp;pressure;altitude;pressure_sealevel;temperature;humidity
80118;BME280;69424;48.770;-1.564;2023-09-08T00:00:03;101516.73;;;23.89;76.11
80118;BME280;69424;48.770;-1.564;2023-09-08T00:00:37;101518.08;;;23.87;76.22
80118;BME280;69424;48.770;-1.564;2023-09-08T00:01:30;101516.70;;;23.84;76.19
80118;BME280;69424;48.770;-1.564;2023-09-08T00:02:04;101517.67;;;23.83;76.29
80118;BME280;69424;48.770;-1.564;2023-09-08T00:02:38;101518.05;;;23.82;76.20
80118;BME280;69424;48.770;-1.564;2023-09-08T00:03:11;101521.50;;;23.80;76.32
80118;BME280;69424;48.770;-1.564;2023-09-08T00:03:44;101519.73;;;23.80;76.43
80118;BME280;69424;48.770;-1.564;2023-09-08T00:04:19;101518.48;;;23.79;76.30
80118;BME280;69424;48.770;-1.564;2023-09-08T00:04:58;101520.86;;;23.78;76.26
80118;BME280;69424;48.770;-1.564;2023-09-08T00:05:32;101521.63;;;23.77;76.22
80118;BME280;69424;48.770;-1.564;2023-09-08T00:06:05;101517.85;;;23.76;76.30
80118;BME280;69424;48.770;-1.564;2023-09-08T00:06:38;101522.40;;;23.75;76.50
80118;BME280;69424;48.770;-1.564;2023-09-08T00:07:11;101522.02;;;23.76;76.69
80118;BME280;69424;48.770;-1.564;2023-09-08T00:07:44;101519.31;;;23.75;76.63
80118;BME280;69424;48.770;-1.564;2023-09-08T00:08:17;101523.83;;;23.76;76.72
80118;BME280;69424;48.770;-1.564;2023-09-08T00:08:50;101521.63;;;23.77;76.78
80118;BME280;69424;48.770;-1.564;2023-09-08T00:09:24;101518.17;;;23.77;76.76
80118;BME280;69424;48.770;-1.564;2023-09-08T00:09:57;101521.42;;;23.78;76.64
80118;BME280;69424;48.770;-1.564;2023-09-08T00:10:32;101523.02;;;23.79;76.43
80118;BME280;69424;48.770;-1.564;2023-09-08T00:11:07;101520.12;;;23.79;76.44
80118;BME280;69424;48.770;-1.564;2023-09-08T00:11:42;101518.86;;;23.78;76.51
80118;BME280;69424;48.770;-1.564;2023-09-08T00:12:17;101520.11;;;23.79;76.50
80118;BME280;69424;48.770;-1.564;2023-09-08T00:12:52;101522.62;;;23.80;76.38
80118;BME280;69424;48.770;-1.564;2023-09-08T00:13:27;101521.20;;;23.79;76.39
80118;BME280;69424;48.770;-1.564;2023-09-08T00:14:03;101518.66;;;23.79;76.52
80118;BME280;69424;48.770;-1.564;2023-09-08T00:14:38;101523.34;;;23.79;76.18
80118;BME280;69424;48.770;-1.564;2023-09-08T00:15:12;101523.39;;;23.78;75.83
80118;BME280;69424;48.770;-1.564;2023-09-08T00:15:47;101522.87;;;23.77;76.07
80118;BME280;69424;48.770;-1.564;2023-09-08T00:16:22;101526.69;;;23.77;76.00
80118;BME280;69424;48.770;-1.564;2023-09-08T00:16:57;101527.63;;;23.75;76.06
80118;BME280;69424;48.770;-1.564;2023-09-08T00:17:33;101525.68;;;23.75;76.01
80118;BME280;69424;48.770;-1.564;2023-09-08T00:18:08;101529.34;;;23.73;76.01
80118;BME280;69424;48.770;-1.564;2023-09-08T00:18:43;101528.50;;;23.71;75.98
80118;BME280;69424;48.770;-1.564;2023-09-08T00:19:18;101525.48;;;23.69;76.08
80118;BME280;69424;48.770;-1.564;2023-09-08T00:19:52;101526.21;;;23.69;76.27
80118;BME280;69424;48.770;-1.564;2023-09-08T00:20:24;101525.70;;;23.68;76.60
80118;BME280;69424;48.770;-1.564;2023-09-08T00:20:58;101528.45;;;23.67;76.58
80118;BME280;69424;48.770;-1.564;2023-09-08T00:21:31;101529.38;;;23.67;76.70
80118;BME280;69424;48.770;-1.564;2023-09-08T00:22:04;101534.10;;;23.66;76.62
80118;BME280;69424;48.770;-1.564;2023-09-08T00:22:40;101533.91;;;23.66;76.63
80118;BME280;69424;48.770;-1.564;2023-09-08T00:23:16;101537.34;;;23.66;76.63
80118;BME280;69424;48.770;-1.564;2023-09-08T00:23:52;101537.91;;;23.65;76.63
80118;BME280;69424;48.770;-1.564;2023-09-08T00:24:29;101538.98;;;23.66;76.58
80118;BME280;69424;48.770;-1.564;2023-09-08T00:25:06;101537.51;;;23.66;76.66
80118;BME280;69424;48.770;-1.564;2023-09-08T00:25:43;101537.14;;;23.66;76.53
80118;BME280;69424;48.770;-1.564;2023-09-08T00:26:21;101540.58;;;23.67;76.53
80118;BME280;69424;48.770;-1.564;2023-09-08T00:26:58;101539.49;;;23.67;76.42
80118;BME280;69424;48.770;-1.564;2023-09-08T00:27:35;101542.90;;;23.67;76.06
80118;BME280;69424;48.770;-1.564;2023-09-08T00:28:12;101543.46;;;23.66;75.96
80118;BME280;69424;48.770;-1.564;2023-09-08T00:28:49;101545.68;;;23.65;75.96
80118;BME280;69424;48.770;-1.564;2023-09-08T00:29:27;101543.43;;;23.62;75.92
80118;BME280;69424;48.770;-1.564;2023-09-08T00:30:02;101545.08;;;23.61;75.87
80118;BME280;69424;48.770;-1.564;2023-09-08T00:30:40;101545.29;;;23.60;76.01
80118;BME280;69424;48.770;-1.564;2023-09-08T00:31:16;101546.80;;;23.58;76.13
80118;BME280;69424;48.770;-1.564;2023-09-08T00:31:49;101547.88;;;23.58;76.20
80118;BME280;69424;48.770;-1.564;2023-09-08T00:32:23;101543.73;;;23.58;76.39
80118;BME280;69424;48.770;-1.564;2023-09-08T00:32:56;101545.73;;;23.58;76.37
80118;BME280;69424;48.770;-1.564;2023-09-08T00:33:30;101540.67;;;23.57;76.17
80118;BME280;69424;48.770;-1.564;2023-09-08T00:34:03;101543.39;;;23.57;76.10
80118;BME280;69424;48.770;-1.564;2023-09-08T00:34:36;101542.20;;;23.55;76.14
80118;BME280;69424;48.770;-1.564;2023-09-08T00:35:11;101545.66;;;23.54;76.09
80118;BME280;69424;48.770;-1.564;2023-09-08T00:35:48;101545.73;;;23.52;76.21
80118;BME280;69424;48.770;-1.564;2023-09-08T00:36:22;101548.81;;;23.52;76.19
80118;BME280;69424;48.770;-1.564;2023-09-08T00:36:55;101543.27;;;23.51;76.35
80118;BME280;69424;48.770;-1.564;2023-09-08T00:37:29;101544.00;;;23.50;76.43
80118;BME280;69424;48.770;-1.564;2023-09-08T00:38:02;101546.19;;;23.50;76.44
80118;BME280;69424;48.770;-1.564;2023-09-08T00:38:36;101546.73;;;23.49;76.43
80118;BME280;69424;48.770;-1.564;2023-09-08T00:39:09;101546.37;;;23.49;76.27
80118;BME280;69424;48.770;-1.564;2023-09-08T00:39:43;101544.40;;;23.49;76.37
80118;BME280;69424;48.770;-1.564;2023-09-08T00:40:15;101541.88;;;23.49;76.57
80118;BME280;69424;48.770;-1.564;2023-09-08T00:40:48;101548.20;;;23.48;76.48
80118;BME280;69424;48.770;-1.564;2023-09-08T00:41:23;101540.84;;;23.47;76.32
80118;BME280;69424;48.770;-1.564;2023-09-08T00:41:58;101544.46;;;23.47;76.55
80118;BME280;69424;48.770;-1.564;2023-09-08T00:42:34;101540.70;;;23.46;76.52
80118;BME280;69424;48.770;-1.564;2023-09-08T00:43:09;101542.70;;;23.45;76.43
80118;BME280;69424;48.770;-1.564;2023-09-08T00:43:44;101544.20;;;23.44;76.52
80118;BME280;69424;48.770;-1.564;2023-09-08T00:44:19;101547.85;;;23.42;76.48
80118;BME280;69424;48.770;-1.564;2023-09-08T00:44:57;101545.88;;;23.42;76.37
80118;BME280;69424;48.770;-1.564;2023-09-08T00:45:35;101541.95;;;23.41;76.48
80118;BME280;69424;48.770;-1.564;2023-09-08T00:46:13;101545.62;;;23.39;76.76
80118;BME280;69424;48.770;-1.564;2023-09-08T00:46:48;101544.55;;;23.38;76.89
80118;BME280;69424;48.770;-1.564;2023-09-08T00:47:22;101542.56;;;23.38;76.93
80118;BME280;69424;48.770;-1.564;2023-09-08T00:47:57;101541.14;;;23.37;76.86
80118;BME280;69424;48.770;-1.564;2023-09-08T00:48:30;101539.54;;;23.37;76.73
80118;BME280;69424;48.770;-1.564;2023-09-08T00:49:05;101543.52;;;23.37;76.89
80118;BME280;69424;48.770;-1.564;2023-09-08T00:49:39;101540.84;;;23.36;77.02
80118;BME280;69424;48.770;-1.564;2023-09-08T00:50:13;101539.02;;;23.36;77.04
80118;BME280;69424;48.770;-1.564;2023-09-08T00:50:47;101537.91;;;23.37;77.04
80118;BME280;69424;48.770;-1.564;2023-09-08T00:51:21;101542.23;;;23.37;77.09
80118;BME280;69424;48.770;-1.564;2023-09-08T00:51:56;101542.02;;;23.38;77.00
80118;BME280;69424;48.770;-1.564;2023-09-08T00:52:29;101541.26;;;23.39;77.01
80118;BME280;69424;48.770;-1.564;2023-09-08T00:53:06;101542.34;;;23.39;76.81
80118;BME280;69424;48.770;-1.564;2023-09-08T00:53:41;101539.08;;;23.40;76.87
80118;BME280;69424;48.770;-1.564;2023-09-08T00:54:15;101535.43;;;23.41;76.92
80118;BME280;69424;48.770;-1.564;2023-09-08T00:54:48;101537.59;;;23.42;76.71
80118;BME280;69424;48.770;-1.564;2023-09-08T00:55:21;101538.65;;;23.42;76.67
80118;BME280;69424;48.770;-1.564;2023-09-08T00:55:54;101537.91;;;23.43;76.51
80118;BME280;69424;48.770;-1.564;2023-09-08T00:56:29;101541.38;;;23.41;76.25
80118;BME280;69424;48.770;-1.564;2023-09-08T00:57:03;101539.45;;;23.40;76.30
80118;BME280;69424;48.770;-1.564;2023-09-08T00:57:36;101538.93;;;23.39;76.46
80118;BME280;69424;48.770;-1.564;2023-09-08T00:58:11;101539.88;;;23.38;76.50
80118;BME280;69424;48.770;-1.564;2023-09-08T00:58:45;101542.77;;;23.37;76.68
80118;BME280;69424;48.770;-1.564;2023-09-08T00:59:19;101539.40;;;23.35;76.49
80118;BME280;69424;48.770;-1.564;2023-09-08T00:59:53;101541.95;;;23.35;76.55
80118;BME280;69424;48.770;-1.564;2023-09-08T01:00:26;101538.05;;;23.33;76.47
80118;BME280;69424;48.770;-1.564;2023-09-08T01:00:59;101541.02;;;23.30;76.43
80118;BME280;69424;48.770;-1.564;2023-09-08T01:01:33;101540.17;;;23.28;76.70
80118;BME280;69424;48.770;-1.564;2023-09-08T01:02:07;101544.71;;;23.28;76.96
80118;BME280;69424;48.770;-1.564;2023-09-08T01:02:40;101542.94;;;23.27;77.03
80118;BME280;69424;48.770;-1.564;2023-09-08T01:03:15;101539.71;;;23.26;76.83
80118;BME280;69424;48.770;-1.564;2023-09-08T01:03:48;101537.59;;;23.24;76.70
80118;BME280;69424;48.770;-1.564;2023-09-08T01:04:22;101541.23;;;23.23;76.68
80118;BME280;69424;48.770;-1.564;2023-09-08T01:04:55;101538.39;;;23.22;76.72
80118;BME280;69424;48.770;-1.564;2023-09-08T01:05:28;101540.45;;;23.20;76.92
80118;BME280;69424;48.770;-1.564;2023-09-08T01:06:03;101540.48;;;23.18;77.07
80118;BME280;69424;48.770;-1.564;2023-09-08T01:06:37;101542.30;;;23.17;77.36
80118;BME280;69424;48.770;-1.564;2023-09-08T01:07:11;101542.86;;;23.17;77.45
80118;BME280;69424;48.770;-1.564;2023-09-08T01:07:47;101538.73;;;23.17;77.60
80118;BME280;69424;48.770;-1.564;2023-09-08T01:08:21;101535.86;;;23.16;77.66
80118;BME280;69424;48.770;-1.564;2023-09-08T01:08:55;101538.00;;;23.17;77.72
80118;BME280;69424;48.770;-1.564;2023-09-08T01:09:29;101537.98;;;23.17;77.64
80118;BME280;69424;48.770;-1.564;2023-09-08T01:10:03;101536.90;;;23.17;77.62
80118;BME280;69424;48.770;-1.564;2023-09-08T01:10:40;101538.14;;;23.18;77.31
80118;BME280;69424;48.770;-1.564;2023-09-08T01:11:14;101537.27;;;23.17;77.11
80118;BME280;69424;48.770;-1.564;2023-09-08T01:11:47;101537.29;;;23.17;76.97
80118;BME280;69424;48.770;-1.564;2023-09-08T01:12:21;101538.75;;;23.16;77.01
80118;BME280;69424;48.770;-1.564;2023-09-08T01:12:54;101538.41;;;23.16;76.99
80118;BME280;69424;48.770;-1.564;2023-09-08T01:13:27;101536.43;;;23.15;77.04
80118;BME280;69424;48.770;-1.564;2023-09-08T01:14:00;101535.73;;;23.14;77.11
80118;BME280;69424;48.770;-1.564;2023-09-08T01:14:34;101535.78;;;23.13;76.98
80118;BME280;69424;48.770;-1.564;2023-09-08T01:15:07;101537.82;;;23.11;77.07
80118;BME280;69424;48.770;-1.564;2023-09-08T01:15:41;101540.19;;;23.10;77.12
80118;BME280;69424;48.770;-1.564;2023-09-08T01:16:14;101540.58;;;23.09;77.22
80118;BME280;69424;48.770;-1.564;2023-09-08T01:16:47;101537.70;;;23.09;77.18
80118;BME280;69424;48.770;-1.564;2023-09-08T01:17:22;101539.70;;;23.08;77.24
80118;BME280;69424;48.770;-1.564;2023-09-08T01:17:56;101539.88;;;23.09;77.61
80118;BME280;69424;48.770;-1.564;2023-09-08T01:18:30;101540.94;;;23.09;77.54
80118;BME280;69424;48.770;-1.564;2023-09-08T01:19:05;101543.30;;;23.09;77.33
80118;BME280;69424;48.770;-1.564;2023-09-08T01:19:43;101538.97;;;23.09;77.23
80118;BME280;69424;48.770;-1.564;2023-09-08T01:20:24;101537.14;;;23.09;77.45
80118;BME280;69424;48.770;-1.564;2023-09-08T01:25:18;101534.85;;;23.01;77.41
80118;BME280;69424;48.770;-1.564;2023-09-08T01:26:04;101531.46;;;22.99;77.32
80118;BME280;69424;48.770;-1.564;2023-09-08T01:26:41;101532.42;;;22.97;77.05
80118;BME280;69424;48.770;-1.564;2023-09-08T01:27:16;101530.10;;;22.97;77.11
80118;BME280;69424;48.770;-1.564;2023-09-08T01:27:55;101533.36;;;22.97;77.25
80118;BME280;69424;48.770;-1.564;2023-09-08T01:28:32;101528.84;;;22.96;77.34
80118;BME280;69424;48.770;-1.564;2023-09-08T01:29:06;101531.02;;;22.96;77.26
80118;BME280;69424;48.770;-1.564;2023-09-08T01:29:40;101529.41;;;22.96;77.19
80118;BME280;69424;48.770;-1.564;2023-09-08T01:30:15;101522.57;;;22.95;77.11
80118;BME280;69424;48.770;-1.564;2023-09-08T01:30:50;101526.20;;;22.94;77.00
80118;BME280;69424;48.770;-1.564;2023-09-08T01:31:24;101524.98;;;22.93;76.91
80118;BME280;69424;48.770;-1.564;2023-09-08T01:31:58;101526.80;;;22.92;77.01
80118;BME280;69424;48.770;-1.564;2023-09-08T01:32:32;101528.84;;;22.91;77.15
80118;BME280;69424;48.770;-1.564;2023-09-08T01:33:06;101528.50;;;22.90;77.30
80118;BME280;69424;48.770;-1.564;2023-09-08T01:33:40;101529.39;;;22.90;77.54
80118;BME280;69424;48.770;-1.564;2023-09-08T01:34:14;101527.04;;;22.91;77.67
80118;BME280;69424;48.770;-1.564;2023-09-08T01:34:47;101528.67;;;22.90;77.55
80118;BME280;69424;48.770;-1.564;2023-09-08T01:35:23;101529.76;;;22.90;77.61
80118;BME280;69424;48.770;-1.564;2023-09-08T01:35:57;101530.27;;;22.91;77.74
80118;BME280;69424;48.770;-1.564;2023-09-08T01:36:31;101527.20;;;22.92;77.89
80118;BME280;69424;48.770;-1.564;2023-09-08T01:37:04;101529.52;;;22.92;77.84
80118;BME280;69424;48.770;-1.564;2023-09-08T01:37:40;101532.92;;;22.93;77.66
80118;BME280;69424;48.770;-1.564;2023-09-08T01:38:14;101525.70;;;22.93;77.65
80118;BME280;69424;48.770;-1.564;2023-09-08T01:38:48;101527.63;;;22.95;77.47
80118;BME280;69424;48.770;-1.564;2023-09-08T01:39:21;101525.09;;;22.96;77.28
80118;BME280;69424;48.770;-1.564;2023-09-08T01:39:54;101527.23;;;22.96;77.00
80118;BME280;69424;48.770;-1.564;2023-09-08T01:40:28;101528.86;;;22.96;77.01
80118;BME280;69424;48.770;-1.564;2023-09-08T01:41:01;101525.44;;;22.96;76.94
80118;BME280;69424;48.770;-1.564;2023-09-08T01:41:35;101527.08;;;22.96;77.10
80118;BME280;69424;48.770;-1.564;2023-09-08T01:42:08;101526.90;;;22.95;76.86
80118;BME280;69424;48.770;-1.564;2023-09-08T01:42:41;101523.86;;;22.95;77.09
80118;BME280;69424;48.770;-1.564;2023-09-08T01:43:14;101527.48;;;22.93;77.07
80118;BME280;69424;48.770;-1.564;2023-09-08T01:43:48;101519.94;;;22.93;77.22
80118;BME280;69424;48.770;-1.564;2023-09-08T01:44:22;101525.36;;;22.92;77.18
80118;BME280;69424;48.770;-1.564;2023-09-08T01:44:56;101521.60;;;22.92;77.11
80118;BME280;69424;48.770;-1.564;2023-09-08T01:45:29;101517.84;;;22.91;77.18
80118;BME280;69424;48.770;-1.564;2023-09-08T01:46:02;101518.94;;;22.90;77.32
80118;BME280;69424;48.770;-1.564;2023-09-08T01:46:35;101517.14;;;22.90;77.41
80118;BME280;69424;48.770;-1.564;2023-09-08T01:47:09;101519.98;;;22.91;77.44
80118;BME280;69424;48.770;-1.564;2023-09-08T01:47:42;101519.08;;;22.91;77.38
80118;BME280;69424;48.770;-1.564;2023-09-08T01:48:15;101520.72;;;22.91;77.30
80118;BME280;69424;48.770;-1.564;2023-09-08T01:48:49;101520.34;;;22.92;77.36
80118;BME280;69424;48.770;-1.564;2023-09-08T01:49:23;101516.38;;;22.91;77.38
80118;BME280;69424;48.770;-1.564;2023-09-08T01:49:56;101516.91;;;22.92;77.16
80118;BME280;69424;48.770;-1.564;2023-09-08T01:50:30;101515.66;;;22.91;77.05
80118;BME280;69424;48.770;-1.564;2023-09-08T01:51:04;101515.66;;;22.92;77.10
80118;BME280;69424;48.770;-1.564;2023-09-08T01:51:37;101515.65;;;22.91;77.12
80118;BME280;69424;48.770;-1.564;2023-09-08T01:52:10;101516.77;;;22.90;76.92
80118;BME280;69424;48.770;-1.564;2023-09-08T01:52:43;101513.55;;;22.89;76.77
80118;BME280;69424;48.770;-1.564;2023-09-08T01:53:16;101515.91;;;22.89;76.93
80118;BME280;69424;48.770;-1.564;2023-09-08T01:53:49;101518.46;;;22.88;77.20
80118;BME280;69424;48.770;-1.564;2023-09-08T01:54:23;101516.30;;;22.88;77.05
80118;BME280;69424;48.770;-1.564;2023-09-08T01:54:56;101517.94;;;22.87;77.00
80118;BME280;69424;48.770;-1.564;2023-09-08T01:55:33;101519.08;;;22.85;77.08
80118;BME280;69424;48.770;-1.564;2023-09-08T01:56:08;101515.13;;;22.85;77.07
80118;BME280;69424;48.770;-1.564;2023-09-08T01:56:44;101515.88;;;22.84;77.05
80118;BME280;69424;48.770;-1.564;2023-09-08T01:57:19;101515.91;;;22.83;77.25
80118;BME280;69424;48.770;-1.564;2023-09-08T01:57:55;101513.55;;;22.83;77.42
80118;BME280;69424;48.770;-1.564;2023-09-08T01:58:30;101519.35;;;22.82;77.50
80118;BME280;69424;48.770;-1.564;2023-09-08T01:59:07;101515.90;;;22.83;77.42
80118;BME280;69424;48.770;-1.564;2023-09-08T01:59:40;101518.98;;;22.83;77.38
80118;BME280;69424;48.770;-1.564;2023-09-08T02:00:14;101517.73;;;22.82;77.16
80118;BME280;69424;48.770;-1.564;2023-09-08T02:00:51;101516.13;;;22.81;77.14
80118;BME280;69424;48.770;-1.564;2023-09-08T02:01:25;101519.40;;;22.81;77.34
80118;BME280;69424;48.770;-1.564;2023-09-08T02:01:58;101519.24;;;22.80;77.28
80118;BME280;69424;48.770;-1.564;2023-09-08T02:02:31;101522.63;;;22.81;77.52
80118;BME280;69424;48.770;-1.564;2023-09-08T02:03:05;101524.44;;;22.81;77.45
80118;BME280;69424;48.770;-1.564;2023-09-08T02:03:39;101528.04;;;22.81;77.20
80118;BME280;69424;48.770;-1.564;2023-09-08T02:04:12;101525.50;;;22.82;77.16
80118;BME280;69424;48.770;-1.564;2023-09-08T02:04:47;101527.13;;;22.81;77.13
80118;BME280;69424;48.770;-1.564;2023-09-08T02:05:21;101526.27;;;22.80;77.42
80118;BME280;69424;48.770;-1.564;2023-09-08T02:05:54;101528.61;;;22.80;77.39
80118;BME280;69424;48.770;-1.564;2023-09-08T02:06:28;101527.16;;;22.80;77.51
80118;BME280;69424;48.770;-1.564;2023-09-08T02:07:02;101533.27;;;22.81;77.42
80118;BME280;69424;48.770;-1.564;2023-09-08T02:07:36;101530.40;;;22.80;77.43
80118;BME280;69424;48.770;-1.564;2023-09-08T02:08:09;101527.31;;;22.81;77.38
80118;BME280;69424;48.770;-1.564;2023-09-08T02:08:43;101526.77;;;22.82;77.40
80118;BME280;69424;48.770;-1.564;2023-09-08T02:09:16;101529.98;;;22.82;77.30
80118;BME280;69424;48.770;-1.564;2023-09-08T02:09:50;101528.92;;;22.82;77.25
80118;BME280;69424;48.770;-1.564;2023-09-08T02:10:25;101526.73;;;22.82;77.05
80118;BME280;69424;48.770;-1.564;2023-09-08T02:10:58;101529.80;;;22.82;76.89
80118;BME280;69424;48.770;-1.564;2023-09-08T02:11:31;101528.20;;;22.81;76.84
80118;BME280;69424;48.770;-1.564;2023-09-08T02:12:05;101527.69;;;22.80;76.86
80118;BME280;69424;48.770;-1.564;2023-09-08T02:12:38;101530.98;;;22.79;76.76
80118;BME280;69424;48.770;-1.564;2023-09-08T02:13:11;101528.64;;;22.79;76.89
80118;BME280;69424;48.770;-1.564;2023-09-08T02:13:44;101532.45;;;22.78;77.09
80118;BME280;69424;48.770;-1.564;2023-09-08T02:14:17;101529.59;;;22.77;77.33
80118;BME280;69424;48.770;-1.564;2023-09-08T02:14:51;101533.36;;;22.78;77.44
80118;BME280;69424;48.770;-1.564;2023-09-08T02:15:25;101533.17;;;22.78;77.44
80118;BME280;69424;48.770;-1.564;2023-09-08T02:15:58;101532.98;;;22.78;77.40
80118;BME280;69424;48.770;-1.564;2023-09-08T02:16:31;101534.60;;;22.79;77.09
80118;BME280;69424;48.770;-1.564;2023-09-08T02:17:06;101537.50;;;22.78;76.90
80118;BME280;69424;48.770;-1.564;2023-09-08T02:17:39;101536.23;;;22.78;76.90
80118;BME280;69424;48.770;-1.564;2023-09-08T02:18:11;101541.33;;;22.77;77.04
80118;BME280;69424;48.770;-1.564;2023-09-08T02:18:46;101542.05;;;22.77;77.10
80118;BME280;69424;48.770;-1.564;2023-09-08T02:19:20;101541.34;;;22.76;77.07
80118;BME280;69424;48.770;-1.564;2023-09-08T02:19:54;101541.15;;;22.77;77.15
80118;BME280;69424;48.770;-1.564;2023-09-08T02:20:27;101542.58;;;22.77;77.26
80118;BME280;69424;48.770;-1.564;2023-09-08T02:21:00;101542.17;;;22.78;77.19
80118;BME280;69424;48.770;-1.564;2023-09-08T02:21:33;101541.45;;;22.78;77.20
80118;BME280;69424;48.770;-1.564;2023-09-08T02:22:07;101544.15;;;22.79;77.19
80118;BME280;69424;48.770;-1.564;2023-09-08T02:22:40;101545.04;;;22.79;76.99
80118;BME280;69424;48.770;-1.564;2023-09-08T02:23:13;101542.86;;;22.80;77.10
80118;BME280;69424;48.770;-1.564;2023-09-08T02:23:46;101541.05;;;22.80;77.12
80118;BME280;69424;48.770;-1.564;2023-09-08T02:24:19;101541.44;;;22.79;77.23
80118;BME280;69424;48.770;-1.564;2023-09-08T02:24:53;101540.52;;;22.79;77.26
80118;BME280;69424;48.770;-1.564;2023-09-08T02:25:26;101542.50;;;22.79;77.23
80118;BME280;69424;48.770;-1.564;2023-09-08T02:25:59;101538.17;;;22.80;77.04
80118;BME280;69424;48.770;-1.564;2023-09-08T02:26:33;101542.85;;;22.80;76.80
80118;BME280;69424;48.770;-1.564;2023-09-08T02:27:06;101543.25;;;22.78;76.69
80118;BME280;69424;48.770;-1.564;2023-09-08T02:27:41;101541.83;;;22.78;76.80
80118;BME280;69424;48.770;-1.564;2023-09-08T02:28:14;101538.23;;;22.78;76.79
80118;BME280;69424;48.770;-1.564;2023-09-08T02:28:47;101540.41;;;22.77;76.63
80118;BME280;69424;48.770;-1.564;2023-09-08T02:29:21;101542.23;;;22.77;76.56
80118;BME280;69424;48.770;-1.564;2023-09-08T02:29:55;101541.91;;;22.75;76.56
80118;BME280;69424;48.770;-1.564;2023-09-08T02:30:29;101542.33;;;22.74;76.56
80118;BME280;69424;48.770;-1.564;2023-09-08T02:31:06;101542.34;;;22.73;76.69
80118;BME280;69424;48.770;-1.564;2023-09-08T02:31:39;101544.89;;;22.72;76.77
80118;BME280;69424;48.770;-1.564;2023-09-08T02:32:13;101544.22;;;22.70;76.74
80118;BME280;69424;48.770;-1.564;2023-09-08T02:32:47;101546.61;;;22.69;76.82
80118;BME280;69424;48.770;-1.564;2023-09-08T02:33:21;101545.16;;;22.69;76.93
80118;BME280;69424;48.770;-1.564;2023-09-08T02:33:55;101549.13;;;22.68;77.02
80118;BME280;69424;48.770;-1.564;2023-09-08T02:34:28;101550.94;;;22.68;77.08
80118;BME280;69424;48.770;-1.564;2023-09-08T02:35:02;101544.65;;;22.67;77.01
80118;BME280;69424;48.770;-1.564;2023-09-08T02:35:37;101550.62;;;22.67;77.03
80118;BME280;69424;48.770;-1.564;2023-09-08T02:36:15;101547.22;;;22.66;77.13
80118;BME280;69424;48.770;-1.564;2023-09-08T02:36:48;101549.73;;;22.66;77.06
80118;BME280;69424;48.770;-1.564;2023-09-08T02:37:29;101553.52;;;22.67;77.14
80118;BME280;69424;48.770;-1.564;2023-09-08T02:38:06;101552.27;;;22.66;77.21
80118;BME280;69424;48.770;-1.564;2023-09-08T02:38:44;101552.98;;;22.66;77.28
80118;BME280;69424;48.770;-1.564;2023-09-08T02:39:21;101545.55;;;22.68;77.27
80118;BME280;69424;48.770;-1.564;2023-09-08T02:40:00;101553.28;;;22.68;77.07
80118;BME280;69424;48.770;-1.564;2023-09-08T02:40:39;101550.94;;;22.69;76.97
80118;BME280;69424;48.770;-1.564;2023-09-08T02:41:16;101552.56;;;22.68;76.86
80118;BME280;69424;48.770;-1.564;2023-09-08T02:41:53;101546.84;;;22.67;76.71
80118;BME280;69424;48.770;-1.564;2023-09-08T02:42:27;101550.13;;;22.66;76.59
80118;BME280;69424;48.770;-1.564;2023-09-08T02:43:02;101551.25;;;22.64;76.65
80118;BME280;69424;48.770;-1.564;2023-09-08T02:43:36;101549.83;;;22.63;76.71
80118;BME280;69424;48.770;-1.564;2023-09-08T02:44:10;101546.05;;;22.63;76.87
80118;BME280;69424;48.770;-1.564;2023-09-08T02:44:43;101549.48;;;22.63;77.11
80118;BME280;69424;48.770;-1.564;2023-09-08T02:45:16;101546.80;;;22.62;77.07
80118;BME280;69424;48.770;-1.564;2023-09-08T02:45:49;101543.70;;;22.63;77.08
80118;BME280;69424;48.770;-1.564;2023-09-08T02:46:24;101545.14;;;22.63;77.01
80118;BME280;69424;48.770;-1.564;2023-09-08T02:46:57;101549.64;;;22.64;77.08
80118;BME280;69424;48.770;-1.564;2023-09-08T02:47:30;101544.05;;;22.63;77.04
80118;BME280;69424;48.770;-1.564;2023-09-08T02:48:04;101543.87;;;22.64;76.91
80118;BME280;69424;48.770;-1.564;2023-09-08T02:48:37;101546.93;;;22.64;77.01
80118;BME280;69424;48.770;-1.564;2023-09-08T02:49:11;101541.34;;;22.64;77.14
80118;BME280;69424;48.770;-1.564;2023-09-08T02:49:45;101543.69;;;22.64;77.09
80118;BME280;69424;48.770;-1.564;2023-09-08T02:50:19;101540.80;;;22.64;77.16
80118;BME280;69424;48.770;-1.564;2023-09-08T02:50:52;101544.41;;;22.64;76.97
80118;BME280;69424;48.770;-1.564;2023-09-08T02:51:27;101542.77;;;22.63;76.59
80118;BME280;69424;48.770;-1.564;2023-09-08T02:52:00;101542.08;;;22.63;76.74
80118;BME280;69424;48.770;-1.564;2023-09-08T02:52:33;101542.81;;;22.62;76.71
80118;BME280;69424;48.770;-1.564;2023-09-08T02:53:06;101534.95;;;22.60;76.69
80118;BME280;69424;48.770;-1.564;2023-09-08T02:53:40;101539.64;;;22.60;76.98
80118;BME280;69424;48.770;-1.564;2023-09-08T02:54:13;101538.39;;;22.60;76.91
80118;BME280;69424;48.770;-1.564;2023-09-08T02:54:46;101537.86;;;22.60;76.99
80118;BME280;69424;48.770;-1.564;2023-09-08T02:55:19;101536.03;;;22.60;77.13
80118;BME280;69424;48.770;-1.564;2023-09-08T02:55:53;101542.72;;;22.60;77.10
80118;BME280;69424;48.770;-1.564;2023-09-08T02:56:25;101534.23;;;22.60;77.21
80118;BME280;69424;48.770;-1.564;2023-09-08T02:56:59;101535.70;;;22.60;77.22
80118;BME280;69424;48.770;-1.564;2023-09-08T02:57:32;101535.70;;;22.59;77.25
80118;BME280;69424;48.770;-1.564;2023-09-08T02:58:05;101534.81;;;22.59;77.40
80118;BME280;69424;48.770;-1.564;2023-09-08T02:58:38;101536.63;;;22.58;77.35
80118;BME280;69424;48.770;-1.564;2023-09-08T02:59:12;101533.56;;;22.58;77.46
80118;BME280;69424;48.770;-1.564;2023-09-08T02:59:49;101529.05;;;22.58;77.52
80118;BME280;69424;48.770;-1.564;2023-09-08T03:00:24;101534.80;;;22.59;77.53
80118;BME280;69424;48.770;-1.564;2023-09-08T03:00:57;101534.63;;;22.58;77.50
80118;BME280;69424;48.770;-1.564;2023-09-08T03:01:30;101537.52;;;22.59;77.47